sensor_id;sensor_type;location;lat;lon;timestamp;P1;durP1;ratioP1;P2;durP2;ratioP2
45382;SDS011;42455;51.660;5.824;2023-04-05T00:04:02;9.0;;;7.0;;
45382;SDS011;42455;51.660;5.824;2023-04-05T00:09:08;8.0;;;7.0;;
45382;SDS011;42455;51.660;5.824;2023-04-05T00:14:13;8.0;;;7.0;;
45382;SDS011;42455;51.660;5.824;2023-04-05T00:19:19;10.5;;;7.0;;
45382;SDS011;42455;51.660;5.824;2023-04-05T00:24:25;9.0;;;7.0;;
45382;SDS011;42455;51.660;5.824;2023-04-05T00:29:32;10.0;;;7.0;;
45382;SDS011;42455;51.660;5.824;2023-04-05T00:34:38;10.0;;;7.0;;
45382;SDS011;42455;51.660;5.824;2023-04-05T00:39:44;8.0;;;7.0;;
45382;SDS011;42455;51.660;5.824;2023-04-05T00:44:50;8.5;;;7.0;;
45382;SDS011;42455;51.660;5.824;2023-04-05T00:49:57;9.0;;;8.0;;
45382;SDS011;42455;51.660;5.824;2023-04-05T00:55:03;10.0;;;8.0;;
45382;SDS011;42455;51.660;5.824;2023-04-05T01:00:09;9.0;;;7.0;;
45382;SDS011;42455;51.660;5.824;2023-04-05T01:05:23;9.0;;;7.5;;
45382;SDS011;42455;51.660;5.824;2023-04-05T01:10:34;10.0;;;8.0;;
45382;SDS011;42455;51.660;5.824;2023-04-05T01:15:28;10.0;;;8.0;;
45382;SDS011;42455;51.660;5.824;2023-04-05T01:20:38;9.5;;;8.0;;
45382;SDS011;42455;51.660;5.824;2023-04-05T01:27:20;9.0;;;8.0;;
45382;SDS011;42455;51.660;5.824;2023-04-05T01:32:38;8.0;;;7.0;;
45382;SDS011;42455;51.660;5.824;2023-04-05T01:37:01;10.0;;;8.0;;
45382;SDS011;42455;51.660;5.824;2023-04-05T01:40:59;8.5;;;7.0;;
45382;SDS011;42455;51.660;5.824;2023-04-05T01:46:05;9.0;;;8.0;;
45382;SDS011;42455;51.660;5.824;2023-04-05T01:51:11;10.0;;;8.0;;
45382;SDS011;42455;51.660;5.824;2023-04-05T01:56:17;10.0;;;8.0;;
45382;SDS011;42455;51.660;5.824;2023-04-05T02:01:22;8.0;;;8.0;;
45382;SDS011;42455;51.660;5.824;2023-04-05T02:06:29;9.0;;;8.0;;
45382;SDS011;42455;51.660;5.824;2023-04-05T02:11:35;9.0;;;7.0;;
45382;SDS011;42455;51.660;5.824;2023-04-05T02:16:40;9.5;;;7.0;;
45382;SDS011;42455;51.660;5.824;2023-04-05T02:21:46;8.0;;;7.0;;
45382;SDS011;42455;51.660;5.824;2023-04-05T02:26:53;8.0;;;7.0;;
45382;SDS011;42455;51.660;5.824;2023-04-05T02:31:59;10.0;;;7.0;;
45382;SDS011;42455;51.660;5.824;2023-04-05T02:37:05;9.0;;;7.0;;
45382;SDS011;42455;51.660;5.824;2023-04-05T02:42:11;8.0;;;7.0;;
45382;SDS011;42455;51.660;5.824;2023-04-05T02:47:18;8.5;;;7.0;;
45382;SDS011;42455;51.660;5.824;2023-04-05T02:52:24;8.0;;;7.0;;
45382;SDS011;42455;51.660;5.824;2023-04-05T02:57:30;8.0;;;7.0;;
45382;SDS011;42455;51.660;5.824;2023-04-05T03:02:36;8.0;;;7.0;;
45382;SDS011;42455;51.660;5.824;2023-04-05T03:07:42;8.0;;;7.0;;
45382;SDS011;42455;51.660;5.824;2023-04-05T03:12:48;9.0;;;7.0;;
45382;SDS011;42455;51.660;5.824;2023-04-05T03:17:55;9.0;;;7.0;;
45382;SDS011;42455;51.660;5.824;2023-04-05T03:23:01;8.0;;;7.0;;
45382;SDS011;42455;51.660;5.824;2023-04-05T03:28:07;8.5;;;8.0;;
45382;SDS011;42455;51.660;5.824;2023-04-05T03:33:13;8.0;;;7.0;;
45382;SDS011;42455;51.660;5.824;2023-04-05T03:38:19;9.0;;;7.0;;
45382;SDS011;42455;51.660;5.824;2023-04-05T03:43:26;8.5;;;7.0;;
45382;SDS011;42455;51.660;5.824;2023-04-05T03:48:32;8.0;;;7.0;;
45382;SDS011;42455;51.660;5.824;2023-04-05T03:53:38;9.0;;;7.0;;
45382;SDS011;42455;51.660;5.824;2023-04-05T03:58:44;9.0;;;7.0;;
45382;SDS011;42455;51.660;5.824;2023-04-05T04:03:50;8.0;;;7.0;;
45382;SDS011;42455;51.660;5.824;2023-04-05T04:08:56;9.0;;;8.0;;
45382;SDS011;42455;51.660;5.824;2023-04-05T04:14:02;9.0;;;8.0;;
45382;SDS011;42455;51.660;5.824;2023-04-05T04:19:07;9.0;;;7.0;;
45382;SDS011;42455;51.660;5.824;2023-04-05T04:24:13;9.0;;;7.0;;
45382;SDS011;42455;51.660;5.824;2023-04-05T04:29:20;10.0;;;7.0;;
45382;SDS011;42455;51.660;5.824;2023-04-05T04:34:26;9.0;;;8.0;;
45382;SDS011;42455;51.660;5.824;2023-04-05T04:39:32;9.0;;;8.0;;
45382;SDS011;42455;51.660;5.824;2023-04-05T04:44:38;9.0;;;8.0;;
45382;SDS011;42455;51.660;5.824;2023-04-05T04:49:44;9.0;;;8.0;;
45382;SDS011;42455;51.660;5.824;2023-04-05T04:54:51;10.0;;;8.0;;
45382;SDS011;42455;51.660;5.824;2023-04-05T04:59:57;10.0;;;8.0;;
45382;SDS011;42455;51.660;5.824;2023-04-05T05:05:03;10.0;;;8.0;;
45382;SDS011;42455;51.660;5.824;2023-04-05T05:10:09;9.5;;;8.0;;
45382;SDS011;42455;51.660;5.824;2023-04-05T05:15:16;10.0;;;8.0;;
45382;SDS011;42455;51.660;5.824;2023-04-05T05:20:22;10.0;;;8.0;;
45382;SDS011;42455;51.660;5.824;2023-04-05T05:25:28;10.0;;;8.0;;
45382;SDS011;42455;51.660;5.824;2023-04-05T05:30:34;10.0;;;9.0;;
45382;SDS011;42455;51.660;5.824;2023-04-05T05:35:40;11.0;;;10.0;;
45382;SDS011;42455;51.660;5.824;2023-04-05T05:40:47;13.0;;;10.0;;
45382;SDS011;42455;51.660;5.824;2023-04-05T05:45:53;12.0;;;10.0;;
45382;SDS011;42455;51.660;5.824;2023-04-05T05:50:59;12.0;;;10.0;;
45382;SDS011;42455;51.660;5.824;2023-04-05T05:56:05;12.0;;;10.0;;
45382;SDS011;42455;51.660;5.824;2023-04-05T06:01:11;12.0;;;10.0;;
45382;SDS011;42455;51.660;5.824;2023-04-05T06:06:17;14.0;;;10.0;;
45382;SDS011;42455;51.660;5.824;2023-04-05T06:11:23;11.5;;;10.0;;
45382;SDS011;42455;51.660;5.824;2023-04-05T06:16:29;12.0;;;9.0;;
45382;SDS011;42455;51.660;5.824;2023-04-05T06:21:35;13.0;;;10.0;;
45382;SDS011;42455;51.660;5.824;2023-04-05T06:26:41;12.0;;;9.0;;
45382;SDS011;42455;51.660;5.824;2023-04-05T06:31:48;11.0;;;9.0;;
45382;SDS011;42455;51.660;5.824;2023-04-05T06:36:54;11.0;;;9.0;;
45382;SDS011;42455;51.660;5.824;2023-04-05T06:42:00;10.0;;;9.0;;
45382;SDS011;42455;51.660;5.824;2023-04-05T06:47:06;10.0;;;9.0;;
45382;SDS011;42455;51.660;5.824;2023-04-05T06:52:12;10.0;;;9.0;;
45382;SDS011;42455;51.660;5.824;2023-04-05T06:57:19;12.0;;;9.0;;
45382;SDS011;42455;51.660;5.824;2023-04-05T07:02:25;10.0;;;9.0;;
45382;SDS011;42455;51.660;5.824;2023-04-05T07:07:31;10.5;;;9.0;;
45382;SDS011;42455;51.660;5.824;2023-04-05T07:12:38;10.0;;;9.0;;
45382;SDS011;42455;51.660;5.824;2023-04-05T07:17:44;10.0;;;9.0;;
45382;SDS011;42455;51.660;5.824;2023-04-05T07:22:50;10.0;;;9.0;;
45382;SDS011;42455;51.660;5.824;2023-04-05T07:27:56;10.0;;;9.0;;
45382;SDS011;42455;51.660;5.824;2023-04-05T07:33:02;10.0;;;9.0;;
45382;SDS011;42455;51.660;5.824;2023-04-05T07:38:08;10.0;;;8.0;;
45382;SDS011;42455;51.660;5.824;2023-04-05T07:43:15;9.0;;;8.0;;
45382;SDS011;42455;51.660;5.824;2023-04-05T07:48:21;10.0;;;9.0;;
45382;SDS011;42455;51.660;5.824;2023-04-05T07:53:26;9.5;;;8.0;;
45382;SDS011;42455;51.660;5.824;2023-04-05T07:58:32;9.0;;;8.0;;
45382;SDS011;42455;51.660;5.824;2023-04-05T08:03:38;9.0;;;8.0;;
45382;SDS011;42455;51.660;5.824;2023-04-05T08:08:44;9.0;;;8.0;;
45382;SDS011;42455;51.660;5.824;2023-04-05T08:13:50;9.0;;;8.0;;
45382;SDS011;42455;51.660;5.824;2023-04-05T08:18:55;9.0;;;8.0;;
45382;SDS011;42455;51.660;5.824;2023-04-05T08:24:01;9.0;;;8.0;;
45382;SDS011;42455;51.660;5.824;2023-04-05T08:29:08;8.0;;;7.0;;
45382;SDS011;42455;51.660;5.824;2023-04-05T08:34:14;8.0;;;7.0;;
45382;SDS011;42455;51.660;5.824;2023-04-05T08:39:20;9.0;;;7.0;;
45382;SDS011;42455;51.660;5.824;2023-04-05T08:44:26;8.0;;;7.0;;
45382;SDS011;42455;51.660;5.824;2023-04-05T08:49:32;8.0;;;7.0;;
45382;SDS011;42455;51.660;5.824;2023-04-05T08:54:39;8.0;;;7.0;;
45382;SDS011;42455;51.660;5.824;2023-04-05T08:59:45;7.0;;;6.0;;
45382;SDS011;42455;51.660;5.824;2023-04-05T09:04:51;7.0;;;6.0;;
45382;SDS011;42455;51.660;5.824;2023-04-05T09:09:57;7.0;;;6.0;;
45382;SDS011;42455;51.660;5.824;2023-04-05T09:15:04;8.0;;;6.0;;
45382;SDS011;42455;51.660;5.824;2023-04-05T09:20:10;6.0;;;6.0;;
45382;SDS011;42455;51.660;5.824;2023-04-05T09:25:32;6.0;;;5.0;;
45382;SDS011;42455;51.660;5.824;2023-04-05T09:30:22;5.0;;;4.0;;
45382;SDS011;42455;51.660;5.824;2023-04-05T09:35:29;5.0;;;4.0;;
45382;SDS011;42455;51.660;5.824;2023-04-05T09:40:42;6.5;;;5.0;;
45382;SDS011;42455;51.660;5.824;2023-04-05T09:45:41;6.0;;;5.0;;
45382;SDS011;42455;51.660;5.824;2023-04-05T09:50:47;5.5;;;5.0;;
45382;SDS011;42455;51.660;5.824;2023-04-05T09:55:53;7.0;;;5.0;;
45382;SDS011;42455;51.660;5.824;2023-04-05T10:00:59;7.0;;;6.0;;
45382;SDS011;42455;51.660;5.824;2023-04-05T10:06:05;6.0;;;6.0;;
45382;SDS011;42455;51.660;5.824;2023-04-05T10:11:11;7.0;;;5.5;;
45382;SDS011;42455;51.660;5.824;2023-04-05T10:16:16;6.0;;;5.0;;
45382;SDS011;42455;51.660;5.824;2023-04-05T10:21:22;6.0;;;5.0;;
45382;SDS011;42455;51.660;5.824;2023-04-05T10:26:39;6.0;;;5.0;;
45382;SDS011;42455;51.660;5.824;2023-04-05T10:31:38;6.0;;;5.0;;
45382;SDS011;42455;51.660;5.824;2023-04-05T10:36:49;6.0;;;5.0;;
45382;SDS011;42455;51.660;5.824;2023-04-05T10:41:48;6.0;;;5.0;;
45382;SDS011;42455;51.660;5.824;2023-04-05T10:46:53;7.0;;;5.0;;
45382;SDS011;42455;51.660;5.824;2023-04-05T10:51:59;6.0;;;5.0;;
45382;SDS011;42455;51.660;5.824;2023-04-05T10:57:06;5.0;;;5.0;;
45382;SDS011;42455;51.660;5.824;2023-04-05T11:02:12;5.0;;;4.0;;
45382;SDS011;42455;51.660;5.824;2023-04-05T11:07:18;6.0;;;5.0;;
45382;SDS011;42455;51.660;5.824;2023-04-05T11:13:07;5.5;;;5.0;;
45382;SDS011;42455;51.660;5.824;2023-04-05T11:17:30;6.0;;;5.0;;
45382;SDS011;42455;51.660;5.824;2023-04-05T11:22:37;5.0;;;5.0;;
45382;SDS011;42455;51.660;5.824;2023-04-05T11:27:43;7.0;;;5.0;;
45382;SDS011;42455;51.660;5.824;2023-04-05T11:32:49;6.0;;;5.0;;
45382;SDS011;42455;51.660;5.824;2023-04-05T11:38:04;6.0;;;5.0;;
45382;SDS011;42455;51.660;5.824;2023-04-05T11:43:02;5.0;;;5.0;;
45382;SDS011;42455;51.660;5.824;2023-04-05T11:48:10;5.0;;;5.0;;
45382;SDS011;42455;51.660;5.824;2023-04-05T11:53:14;6.0;;;5.0;;
45382;SDS011;42455;51.660;5.824;2023-04-05T11:58:21;8.0;;;5.0;;
45382;SDS011;42455;51.660;5.824;2023-04-05T12:03:26;6.0;;;5.0;;
45382;SDS011;42455;51.660;5.824;2023-04-05T12:08:40;6.0;;;5.0;;
45382;SDS011;42455;51.660;5.824;2023-04-05T12:13:37;6.0;;;5.0;;
45382;SDS011;42455;51.660;5.824;2023-04-05T12:18:43;6.0;;;5.0;;
45382;SDS011;42455;51.660;5.824;2023-04-05T12:23:49;6.0;;;5.0;;
45382;SDS011;42455;51.660;5.824;2023-04-05T12:29:03;6.0;;;5.0;;
45382;SDS011;42455;51.660;5.824;2023-04-05T12:34:02;6.0;;;5.0;;
45382;SDS011;42455;51.660;5.824;2023-04-05T12:39:08;6.0;;;5.0;;
45382;SDS011;42455;51.660;5.824;2023-04-05T12:44:14;6.0;;;6.0;;
45382;SDS011;42455;51.660;5.824;2023-04-05T12:49:20;6.0;;;5.0;;
45382;SDS011;42455;51.660;5.824;2023-04-05T12:54:26;6.0;;;5.0;;
45382;SDS011;42455;51.660;5.824;2023-04-05T12:59:33;5.0;;;5.0;;
45382;SDS011;42455;51.660;5.824;2023-04-05T13:04:39;5.0;;;5.0;;
45382;SDS011;42455;51.660;5.824;2023-04-05T13:09:45;5.0;;;5.0;;
45382;SDS011;42455;51.660;5.824;2023-04-05T13:14:51;5.0;;;5.0;;
45382;SDS011;42455;51.660;5.824;2023-04-05T13:19:58;5.0;;;5.0;;
45382;SDS011;42455;51.660;5.824;2023-04-05T13:25:04;5.0;;;5.0;;
45382;SDS011;42455;51.660;5.824;2023-04-05T13:30:10;5.0;;;5.0;;
45382;SDS011;42455;51.660;5.824;2023-04-05T13:35:16;5.0;;;5.0;;
45382;SDS011;42455;51.660;5.824;2023-04-05T13:40:23;5.0;;;5.0;;
45382;SDS011;42455;51.660;5.824;2023-04-05T13:45:29;5.0;;;4.5;;
45382;SDS011;42455;51.660;5.824;2023-04-05T13:50:35;5.0;;;5.0;;
45382;SDS011;42455;51.660;5.824;2023-04-05T13:55:41;5.0;;;5.0;;
45382;SDS011;42455;51.660;5.824;2023-04-05T14:00:46;5.0;;;5.0;;
45382;SDS011;42455;51.660;5.824;2023-04-05T14:05:52;6.0;;;5.0;;
45382;SDS011;42455;51.660;5.824;2023-04-05T14:10:59;5.0;;;5.0;;
45382;SDS011;42455;51.660;5.824;2023-04-05T14:16:05;6.0;;;5.0;;
45382;SDS011;42455;51.660;5.824;2023-04-05T14:21:10;5.0;;;5.0;;
45382;SDS011;42455;51.660;5.824;2023-04-05T14:26:16;6.0;;;5.0;;
45382;SDS011;42455;51.660;5.824;2023-04-05T14:31:23;5.0;;;5.0;;
45382;SDS011;42455;51.660;5.824;2023-04-05T14:36:29;6.0;;;5.0;;
45382;SDS011;42455;51.660;5.824;2023-04-05T14:41:35;6.0;;;5.0;;
45382;SDS011;42455;51.660;5.824;2023-04-05T14:46:41;6.0;;;5.0;;
45382;SDS011;42455;51.660;5.824;2023-04-05T14:51:47;6.0;;;5.0;;
45382;SDS011;42455;51.660;5.824;2023-04-05T14:56:54;6.0;;;5.0;;
45382;SDS011;42455;51.660;5.824;2023-04-05T15:02:00;6.0;;;5.0;;
45382;SDS011;42455;51.660;5.824;2023-04-05T15:07:05;6.0;;;5.0;;
45382;SDS011;42455;51.660;5.824;2023-04-05T15:12:11;6.0;;;5.0;;
45382;SDS011;42455;51.660;5.824;2023-04-05T15:17:17;6.0;;;5.0;;
45382;SDS011;42455;51.660;5.824;2023-04-05T15:22:24;6.0;;;5.0;;
45382;SDS011;42455;51.660;5.824;2023-04-05T15:27:30;6.0;;;5.0;;
45382;SDS011;42455;51.660;5.824;2023-04-05T15:32:36;6.0;;;5.0;;
45382;SDS011;42455;51.660;5.824;2023-04-05T15:37:42;6.0;;;5.0;;
45382;SDS011;42455;51.660;5.824;2023-04-05T15:42:48;6.0;;;5.5;;
45382;SDS011;42455;51.660;5.824;2023-04-05T15:47:55;6.0;;;6.0;;
45382;SDS011;42455;51.660;5.824;2023-04-05T15:53:01;6.0;;;5.0;;
45382;SDS011;42455;51.660;5.824;2023-04-05T15:58:07;6.0;;;5.0;;
45382;SDS011;42455;51.660;5.824;2023-04-05T16:03:13;6.0;;;5.0;;
45382;SDS011;42455;51.660;5.824;2023-04-05T16:08:19;6.0;;;6.0;;
45382;SDS011;42455;51.660;5.824;2023-04-05T16:13:25;6.0;;;6.0;;
45382;SDS011;42455;51.660;5.824;2023-04-05T16:18:31;7.0;;;6.0;;
45382;SDS011;42455;51.660;5.824;2023-04-05T16:23:36;7.0;;;6.0;;
45382;SDS011;42455;51.660;5.824;2023-04-05T16:28:42;7.0;;;6.0;;
45382;SDS011;42455;51.660;5.824;2023-04-05T16:33:49;6.0;;;6.0;;
45382;SDS011;42455;51.660;5.824;2023-04-05T16:38:55;6.0;;;5.0;;
45382;SDS011;42455;51.660;5.824;2023-04-05T16:44:01;6.0;;;6.0;;
45382;SDS011;42455;51.660;5.824;2023-04-05T16:49:07;6.0;;;5.0;;
45382;SDS011;42455;51.660;5.824;2023-04-05T16:54:13;6.0;;;5.0;;
45382;SDS011;42455;51.660;5.824;2023-04-05T16:59:20;6.0;;;6.0;;
45382;SDS011;42455;51.660;5.824;2023-04-05T17:04:26;7.0;;;6.0;;
45382;SDS011;42455;51.660;5.824;2023-04-05T17:09:32;6.0;;;6.0;;
45382;SDS011;42455;51.660;5.824;2023-04-05T17:14:38;6.0;;;6.0;;
45382;SDS011;42455;51.660;5.824;2023-04-05T17:19:44;6.0;;;6.0;;
45382;SDS011;42455;51.660;5.824;2023-04-05T17:24:51;6.0;;;5.0;;
45382;SDS011;42455;51.660;5.824;2023-04-05T17:29:57;7.0;;;6.0;;
45382;SDS011;42455;51.660;5.824;2023-04-05T17:35:03;6.0;;;5.0;;
45382;SDS011;42455;51.660;5.824;2023-04-05T17:40:10;6.0;;;6.0;;
45382;SDS011;42455;51.660;5.824;2023-04-05T17:45:16;6.0;;;6.0;;
45382;SDS011;42455;51.660;5.824;2023-04-05T17:50:22;7.0;;;6.0;;
45382;SDS011;42455;51.660;5.824;2023-04-05T17:55:28;7.0;;;6.0;;
45382;SDS011;42455;51.660;5.824;2023-04-05T18:00:34;7.0;;;6.0;;
45382;SDS011;42455;51.660;5.824;2023-04-05T18:10:47;7.0;;;6.0;;
45382;SDS011;42455;51.660;5.824;2023-04-05T18:15:52;7.0;;;6.0;;
45382;SDS011;42455;51.660;5.824;2023-04-05T18:20:58;8.0;;;7.0;;
45382;SDS011;42455;51.660;5.824;2023-04-05T18:26:04;8.0;;;7.0;;
45382;SDS011;42455;51.660;5.824;2023-04-05T18:31:09;8.0;;;7.0;;
45382;SDS011;42455;51.660;5.824;2023-04-05T18:36:16;8.0;;;7.0;;
45382;SDS011;42455;51.660;5.824;2023-04-05T18:41:22;8.0;;;7.0;;
45382;SDS011;42455;51.660;5.824;2023-04-05T18:46:28;9.0;;;7.0;;
45382;SDS011;42455;51.660;5.824;2023-04-05T18:51:34;7.0;;;7.0;;
45382;SDS011;42455;51.660;5.824;2023-04-05T18:56:41;8.0;;;7.0;;
45382;SDS011;42455;51.660;5.824;2023-04-05T19:01:47;8.0;;;7.0;;
45382;SDS011;42455;51.660;5.824;2023-04-05T19:06:53;9.0;;;8.0;;
45382;SDS011;42455;51.660;5.824;2023-04-05T19:11:59;8.0;;;7.0;;
45382;SDS011;42455;51.660;5.824;2023-04-05T19:17:05;8.0;;;7.0;;
45382;SDS011;42455;51.660;5.824;2023-04-05T19:22:12;8.0;;;7.0;;
45382;SDS011;42455;51.660;5.824;2023-04-05T19:27:18;9.0;;;8.0;;
45382;SDS011;42455;51.660;5.824;2023-04-05T19:32:24;8.0;;;8.0;;
45382;SDS011;42455;51.660;5.824;2023-04-05T19:37:30;8.0;;;7.0;;
45382;SDS011;42455;51.660;5.824;2023-04-05T19:42:36;8.0;;;8.0;;
45382;SDS011;42455;51.660;5.824;2023-04-05T19:47:46;20.0;;;13.0;;
45382;SDS011;42455;51.660;5.824;2023-04-05T19:52:49;10.0;;;8.0;;
45382;SDS011;42455;51.660;5.824;2023-04-05T19:57:55;10.0;;;8.0;;
45382;SDS011;42455;51.660;5.824;2023-04-05T20:03:01;10.0;;;9.0;;
45382;SDS011;42455;51.660;5.824;2023-04-05T20:08:07;9.0;;;8.0;;
45382;SDS011;42455;51.660;5.824;2023-04-05T20:13:13;10.0;;;8.5;;
45382;SDS011;42455;51.660;5.824;2023-04-05T20:18:20;10.0;;;8.0;;
45382;SDS011;42455;51.660;5.824;2023-04-05T20:23:25;9.0;;;9.0;;
45382;SDS011;42455;51.660;5.824;2023-04-05T20:28:35;9.0;;;8.0;;
45382;SDS011;42455;51.660;5.824;2023-04-05T20:33:39;9.5;;;8.0;;
45382;SDS011;42455;51.660;5.824;2023-04-05T20:38:43;10.0;;;9.0;;
45382;SDS011;42455;51.660;5.824;2023-04-05T20:43:49;10.0;;;9.0;;
45382;SDS011;42455;51.660;5.824;2023-04-05T20:48:55;10.0;;;9.0;;
45382;SDS011;42455;51.660;5.824;2023-04-05T20:54:01;10.0;;;9.0;;
45382;SDS011;42455;51.660;5.824;2023-04-05T20:59:08;10.0;;;9.0;;
45382;SDS011;42455;51.660;5.824;2023-04-05T21:04:14;10.0;;;9.0;;
45382;SDS011;42455;51.660;5.824;2023-04-05T21:09:20;11.0;;;9.0;;
45382;SDS011;42455;51.660;5.824;2023-04-05T21:14:26;11.0;;;10.0;;
45382;SDS011;42455;51.660;5.824;2023-04-05T21:19:32;11.0;;;10.0;;
45382;SDS011;42455;51.660;5.824;2023-04-05T21:24:39;11.0;;;10.0;;
45382;SDS011;42455;51.660;5.824;2023-04-05T21:29:45;11.0;;;10.0;;
45382;SDS011;42455;51.660;5.824;2023-04-05T21:34:51;11.0;;;10.0;;
45382;SDS011;42455;51.660;5.824;2023-04-05T21:39:57;11.0;;;9.0;;
45382;SDS011;42455;51.660;5.824;2023-04-05T21:45:03;10.0;;;9.0;;
45382;SDS011;42455;51.660;5.824;2023-04-05T21:50:10;11.0;;;9.5;;
45382;SDS011;42455;51.660;5.824;2023-04-05T21:55:16;11.0;;;10.0;;
45382;SDS011;42455;51.660;5.824;2023-04-05T22:00:22;12.0;;;11.0;;
45382;SDS011;42455;51.660;5.824;2023-04-05T22:05:28;12.0;;;11.0;;
45382;SDS011;42455;51.660;5.824;2023-04-05T22:10:34;14.0;;;12.0;;
45382;SDS011;42455;51.660;5.824;2023-04-05T22:15:40;12.5;;;11.0;;
45382;SDS011;42455;51.660;5.824;2023-04-05T22:20:46;12.0;;;11.0;;
45382;SDS011;42455;51.660;5.824;2023-04-05T22:25:52;13.0;;;11.0;;
45382;SDS011;42455;51.660;5.824;2023-04-05T22:30:58;12.0;;;11.0;;
45382;SDS011;42455;51.660;5.824;2023-04-05T22:36:05;12.0;;;11.0;;
45382;SDS011;42455;51.660;5.824;2023-04-05T22:41:11;10.0;;;9.0;;
45382;SDS011;42455;51.660;5.824;2023-04-05T22:46:17;12.0;;;10.0;;
45382;SDS011;42455;51.660;5.824;2023-04-05T22:51:23;11.0;;;10.0;;
45382;SDS011;42455;51.660;5.824;2023-04-05T22:56:29;11.0;;;9.0;;
45382;SDS011;42455;51.660;5.824;2023-04-05T23:01:36;11.0;;;10.0;;
45382;SDS011;42455;51.660;5.824;2023-04-05T23:06:42;12.0;;;11.0;;
45382;SDS011;42455;51.660;5.824;2023-04-05T23:11:48;12.0;;;11.0;;
45382;SDS011;42455;51.660;5.824;2023-04-05T23:16:54;12.5;;;11.0;;
45382;SDS011;42455;51.660;5.824;2023-04-05T23:22:01;13.0;;;11.0;;
45382;SDS011;42455;51.660;5.824;2023-04-05T23:27:07;13.0;;;11.0;;
45382;SDS011;42455;51.660;5.824;2023-04-05T23:32:13;13.0;;;11.0;;
45382;SDS011;42455;51.660;5.824;2023-04-05T23:37:19;14.0;;;12.0;;
45382;SDS011;42455;51.660;5.824;2023-04-05T23:42:25;13.0;;;12.0;;
45382;SDS011;42455;51.660;5.824;2023-04-05T23:47:31;14.0;;;12.0;;
45382;SDS011;42455;51.660;5.824;2023-04-05T23:57:44;14.0;;;12.0;;
